createdAt,value
2022-10-29T00:02:01.056Z,2.55
2022-10-29T00:04:27.423Z,1.75
2022-10-29T00:06:53.758Z,2.55
2022-10-29T00:09:20.086Z,1.90
2022-10-29T00:11:46.430Z,2.35
2022-10-29T00:14:12.828Z,3.20
2022-10-29T00:16:40.256Z,3.17
2022-10-29T00:19:07.334Z,3.42
2022-10-29T00:21:34.499Z,3.37
2022-10-29T00:24:00.988Z,3.38
2022-10-29T00:26:30.040Z,2.60
2022-10-29T00:28:56.838Z,2.53
2022-10-29T00:31:24.351Z,1.67
2022-10-29T00:33:52.995Z,2.00
2022-10-29T00:36:26.161Z,2.50
2022-10-29T00:38:52.502Z,3.50
2022-10-29T00:41:21.862Z,3.42
2022-10-29T00:43:51.140Z,2.70
2022-10-29T00:47:07.230Z,2.67
2022-10-29T00:49:35.015Z,2.40
2022-10-29T00:52:03.982Z,2.65
2022-10-29T00:54:33.977Z,2.13
2022-10-29T00:57:07.326Z,2.17
2022-10-29T00:59:33.743Z,2.57
2022-10-29T01:02:00.232Z,2.95
2022-10-29T01:04:27.168Z,2.85
2022-10-29T01:06:55.659Z,2.90
2022-10-29T01:09:21.969Z,2.95
2022-10-29T01:12:22.005Z,3.07
2022-10-29T01:15:07.785Z,2.80
2022-10-29T01:18:01.382Z,2.58
2022-10-29T01:20:42.814Z,2.40
2022-10-29T01:23:42.189Z,2.55
2022-10-29T01:26:29.179Z,2.40
2022-10-29T01:29:28.355Z,2.00
2022-10-29T01:32:11.081Z,2.40
2022-10-29T01:34:51.210Z,1.98
2022-10-29T01:37:23.432Z,2.33
2022-10-29T01:39:56.515Z,2.93
2022-10-29T01:42:38.623Z,2.72
2022-10-29T01:45:11.869Z,2.85
2022-10-29T01:47:58.255Z,2.83
2022-10-29T01:50:25.670Z,2.25
2022-10-29T01:52:53.499Z,3.40
2022-10-29T01:55:23.162Z,3.70
2022-10-29T01:57:49.503Z,4.50
2022-10-29T02:00:19.669Z,3.70
2022-10-29T02:03:09.762Z,4.10
2022-10-29T02:05:58.182Z,4.43
2022-10-29T02:09:00.875Z,3.47
2022-10-29T02:11:49.667Z,3.00
2022-10-29T02:14:23.139Z,2.50
2022-10-29T02:16:49.823Z,2.53
2022-10-29T02:19:16.280Z,3.47
2022-10-29T02:21:44.189Z,2.63
2022-10-29T02:24:11.299Z,3.33
2022-10-29T02:26:37.701Z,3.00
2022-10-29T02:29:04.135Z,3.58
2022-10-29T02:31:30.514Z,3.73
2022-10-29T02:33:57.055Z,4.55
2022-10-29T02:36:23.584Z,3.40
2022-10-29T02:38:50.018Z,4.00
2022-10-29T02:41:16.339Z,4.82
2022-10-29T02:43:42.676Z,4.23
2022-10-29T02:46:18.686Z,3.97
2022-10-29T02:48:45.337Z,4.68
2022-10-29T02:51:11.734Z,4.07
2022-10-29T02:53:38.757Z,3.95
2022-10-29T02:56:06.363Z,3.70
2022-10-29T02:58:32.830Z,4.30
2022-10-29T03:00:59.358Z,4.22
2022-10-29T03:03:26.187Z,4.35
2022-10-29T03:05:52.578Z,3.67
2022-10-29T03:08:19.294Z,4.60
2022-10-29T03:10:45.743Z,4.35
2022-10-29T03:13:12.399Z,3.97
2022-10-29T03:15:38.792Z,4.65
2022-10-29T03:18:05.528Z,4.03
2022-10-29T03:20:32.009Z,4.07
2022-10-29T03:22:58.399Z,4.72
2022-10-29T03:25:24.762Z,3.30
2022-10-29T03:27:51.175Z,3.60
2022-10-29T03:30:17.935Z,5.70
2022-10-29T03:32:45.886Z,4.30
2022-10-29T03:35:14.858Z,5.30
2022-10-29T03:37:41.325Z,4.97
2022-10-29T03:40:09.546Z,4.28
2022-10-29T03:42:37.535Z,4.18
2022-10-29T03:45:04.071Z,4.93
2022-10-29T03:47:30.406Z,4.32
2022-10-29T03:49:56.819Z,4.68
2022-10-29T03:52:23.167Z,5.35
2022-10-29T03:54:49.486Z,4.70
2022-10-29T03:57:15.804Z,4.87
2022-10-29T03:59:42.125Z,4.10
2022-10-29T04:02:09.223Z,4.38
2022-10-29T04:04:35.633Z,3.80
2022-10-29T04:07:02.009Z,4.97
2022-10-29T04:09:28.399Z,6.47
2022-10-29T04:11:54.743Z,4.55
2022-10-29T04:14:21.051Z,4.97
2022-10-29T04:16:47.568Z,4.75
2022-10-29T04:19:13.881Z,4.45
2022-10-29T04:29:59.246Z,4.72
2022-10-29T04:32:25.651Z,5.10
2022-10-29T04:34:51.953Z,5.07
2022-10-29T04:37:18.305Z,5.03
2022-10-29T04:39:44.628Z,4.70
2022-10-29T04:42:10.954Z,4.80
2022-10-29T04:44:37.842Z,4.75
2022-10-29T04:47:04.264Z,5.27
2022-10-29T04:49:30.640Z,4.18
2022-10-29T04:51:57.103Z,4.78
2022-10-29T04:54:23.444Z,4.75
2022-10-29T04:56:49.794Z,4.93
2022-10-29T04:59:16.285Z,4.83
2022-10-29T05:01:42.911Z,4.70
2022-10-29T05:04:09.445Z,4.75
2022-10-29T05:06:35.923Z,4.80
2022-10-29T05:09:02.265Z,4.68
2022-10-29T05:11:28.676Z,4.30
2022-10-29T05:13:55.029Z,5.07
2022-10-29T05:16:21.584Z,5.05
2022-10-29T05:18:48.032Z,4.20
2022-10-29T05:21:15.046Z,3.80
2022-10-29T05:23:41.479Z,4.10
2022-10-29T05:26:07.886Z,3.60
2022-10-29T05:28:34.211Z,4.05
2022-10-29T05:31:02.400Z,4.18
2022-10-29T05:33:28.800Z,3.83
2022-10-29T05:35:55.115Z,4.47
2022-10-29T05:38:21.491Z,3.83
2022-10-29T05:40:47.825Z,4.07
2022-10-29T05:43:15.769Z,3.83
2022-10-29T05:45:42.504Z,4.35
2022-10-29T05:50:41.776Z,4.63
2022-10-29T05:53:11.408Z,5.28
2022-10-29T05:55:38.707Z,5.28
2022-10-29T05:58:07.906Z,5.57
2022-10-29T06:00:37.120Z,4.50
2022-10-29T06:03:04.019Z,4.10
2022-10-29T06:05:30.450Z,4.53
2022-10-29T06:07:58.463Z,4.53
2022-10-29T06:10:26.645Z,4.22
2022-10-29T06:12:52.997Z,4.20
2022-10-29T06:15:19.597Z,4.53
2022-10-29T06:17:46.737Z,4.13
2022-10-29T06:20:18.288Z,4.70
2022-10-29T06:22:44.710Z,4.55
2022-10-29T06:25:11.092Z,4.70
2022-10-29T06:27:37.695Z,4.93
2022-10-29T06:30:05.684Z,4.78
2022-10-29T06:32:32.341Z,4.80
2022-10-29T06:34:58.873Z,4.65
2022-10-29T06:37:25.214Z,5.10
2022-10-29T06:39:51.572Z,5.03
2022-10-29T06:42:17.895Z,5.13
2022-10-29T06:44:44.199Z,5.78
2022-10-29T06:47:10.608Z,5.00
2022-10-29T06:49:36.913Z,4.73
2022-10-29T06:52:03.436Z,5.55
2022-10-29T06:54:29.784Z,5.80
2022-10-29T06:56:56.181Z,5.88
2022-10-29T06:59:24.326Z,5.97
2022-10-29T07:01:50.802Z,6.50
2022-10-29T07:04:18.381Z,6.60
2022-10-29T07:06:44.901Z,6.70
2022-10-29T07:09:11.424Z,7.45
2022-10-29T07:11:37.766Z,6.60
2022-10-29T07:14:05.879Z,6.50
2022-10-29T07:16:32.245Z,5.72
2022-10-29T07:18:58.683Z,5.28
2022-10-29T07:21:25.032Z,5.60
2022-10-29T07:23:51.591Z,5.28
2022-10-29T07:26:17.957Z,5.30
2022-10-29T07:28:44.294Z,5.40
2022-10-29T07:31:11.188Z,5.32
2022-10-29T07:33:37.508Z,5.53
2022-10-29T07:36:04.046Z,6.25
2022-10-29T07:38:30.421Z,5.87
2022-10-29T07:40:56.840Z,7.10
2022-10-29T07:43:23.538Z,9.40
2022-10-29T07:45:51.024Z,10.02
2022-10-29T07:48:19.212Z,9.20
2022-10-29T07:50:45.927Z,10.20
2022-10-29T07:53:12.310Z,10.07
2022-10-29T07:55:38.695Z,9.70
2022-10-29T07:58:07.789Z,9.68
2022-10-29T08:00:37.149Z,10.48
2022-10-29T08:03:04.429Z,11.30
2022-10-29T08:05:31.003Z,11.43
2022-10-29T08:07:58.387Z,10.52
2022-10-29T08:10:25.477Z,11.00
2022-10-29T08:13:00.775Z,9.65
2022-10-29T08:15:29.259Z,10.67
2022-10-29T08:17:56.759Z,11.27
2022-10-29T08:20:25.450Z,11.02
2022-10-29T08:22:51.804Z,11.07
2022-10-29T08:25:18.765Z,11.35
2022-10-29T08:27:45.412Z,10.40
2022-10-29T08:30:14.314Z,10.82
2022-10-29T08:32:46.504Z,10.55
2022-10-29T08:35:13.622Z,9.95
2022-10-29T08:37:44.052Z,9.60
2022-10-29T08:40:19.851Z,10.87
2022-10-29T08:43:15.265Z,10.18
2022-10-29T08:45:48.245Z,8.82
2022-10-29T08:48:46.322Z,9.70
2022-10-29T08:51:23.516Z,9.68
2022-10-29T08:54:17.041Z,8.90
2022-10-29T08:56:44.238Z,9.30
2022-10-29T08:59:14.887Z,9.82
2022-10-29T09:01:41.855Z,9.13
2022-10-29T09:04:44.212Z,9.27
2022-10-29T09:07:28.528Z,9.33
2022-10-29T09:10:00.817Z,9.35
2022-10-29T09:12:44.471Z,9.02
2022-10-29T09:15:19.835Z,9.07
2022-10-29T09:18:10.090Z,8.52
2022-10-29T09:21:00.856Z,9.37
2022-10-29T09:23:49.020Z,8.60
2022-10-29T09:26:40.830Z,9.05
2022-10-29T09:29:44.274Z,8.98
2022-10-29T09:32:19.950Z,8.45
2022-10-29T09:34:52.907Z,9.00
2022-10-29T09:37:24.816Z,9.73
2022-10-29T09:39:53.066Z,9.27
2022-10-29T09:42:47.351Z,9.60
2022-10-29T09:45:18.154Z,9.50
2022-10-29T09:48:07.678Z,8.30
2022-10-29T09:50:52.212Z,9.00
2022-10-29T09:53:18.679Z,9.30
2022-10-29T09:55:53.352Z,8.90
2022-10-29T09:58:23.229Z,9.43
2022-10-29T10:00:51.250Z,9.00
2022-10-29T10:03:27.056Z,8.70
2022-10-29T10:06:08.337Z,9.10
2022-10-29T10:08:55.535Z,8.55
2022-10-29T10:11:23.132Z,8.60
2022-10-29T10:13:59.857Z,8.43
2022-10-29T10:16:29.849Z,8.52
2022-10-29T10:18:56.352Z,8.32
2022-10-29T10:21:28.948Z,9.50
2022-10-29T10:23:57.568Z,9.13
2022-10-29T10:26:39.783Z,9.07
2022-10-29T10:29:13.773Z,8.10
2022-10-29T10:31:47.654Z,8.82
2022-10-29T10:34:18.990Z,8.55
2022-10-29T10:36:55.884Z,8.50
2022-10-29T10:39:42.119Z,8.77
2022-10-29T10:42:25.744Z,8.27
2022-10-29T10:44:54.407Z,8.30
2022-10-29T10:47:24.278Z,8.93
2022-10-29T10:49:50.836Z,8.32
2022-10-29T10:52:25.176Z,7.83
2022-10-29T10:55:24.073Z,7.75
2022-10-29T10:58:00.102Z,7.95
2022-10-29T11:00:30.723Z,8.05
2022-10-29T11:03:13.376Z,7.80
2022-10-29T11:05:58.443Z,7.63
2022-10-29T11:08:34.778Z,7.47
2022-10-29T11:11:08.250Z,7.43
2022-10-29T11:13:34.683Z,7.80
2022-10-29T11:16:13.282Z,7.78
2022-10-29T11:18:52.079Z,7.67
2022-10-29T11:21:25.288Z,6.88
2022-10-29T11:24:00.790Z,6.90
2022-10-29T11:26:35.083Z,7.10
2022-10-29T11:29:31.133Z,6.70
2022-10-29T11:32:30.139Z,6.90
2022-10-29T11:35:05.078Z,6.55
2022-10-29T11:37:37.461Z,6.68
2022-10-29T11:40:24.011Z,6.20
2022-10-29T11:42:50.513Z,5.88
2022-10-29T11:45:36.060Z,5.33
2022-10-29T11:48:08.815Z,5.80
2022-10-29T11:51:03.450Z,5.55
2022-10-29T11:53:38.938Z,5.82
2022-10-29T11:56:42.463Z,5.90
2022-10-29T11:59:34.529Z,5.40
2022-10-29T12:02:09.942Z,5.90
2022-10-29T12:04:57.520Z,6.07
2022-10-29T12:07:45.170Z,5.57
2022-10-29T12:10:42.702Z,5.50
2022-10-29T12:13:22.383Z,6.63
2022-10-29T12:16:03.591Z,5.53
2022-10-29T12:18:42.774Z,5.20
2022-10-29T12:21:24.719Z,6.75
2022-10-29T12:24:02.961Z,6.32
2022-10-29T12:26:44.442Z,5.87
2022-10-29T12:29:19.988Z,5.78
2022-10-29T12:31:52.268Z,6.32
2022-10-29T12:34:41.904Z,5.80
2022-10-29T12:37:23.181Z,5.40
2022-10-29T12:39:55.674Z,6.27
2022-10-29T12:42:25.503Z,7.32
2022-10-29T12:45:29.814Z,5.55
2022-10-29T12:48:19.317Z,5.65
2022-10-29T12:51:13.124Z,6.20
2022-10-29T12:54:14.443Z,6.23
2022-10-29T12:56:42.948Z,5.72
2022-10-29T12:59:25.398Z,5.95
2022-10-29T13:04:38.552Z,6.03
2022-10-29T13:07:23.313Z,6.63
2022-10-29T13:10:22.213Z,7.03
2022-10-29T13:13:20.042Z,6.88
2022-10-29T13:15:59.811Z,6.57
2022-10-29T13:18:44.752Z,6.40
2022-10-29T13:21:11.183Z,6.90
2022-10-29T13:23:37.786Z,6.55
2022-10-29T13:26:05.963Z,7.32
2022-10-29T13:28:35.252Z,6.82
2022-10-29T13:31:01.493Z,6.78
2022-10-29T13:33:27.921Z,7.17
2022-10-29T13:36:06.523Z,6.35
2022-10-29T13:39:04.341Z,6.78
2022-10-29T13:41:44.537Z,6.50
2022-10-29T13:44:14.595Z,6.07
2022-10-29T13:46:54.096Z,6.80
2022-10-29T13:49:26.961Z,7.10
2022-10-29T13:51:58.005Z,6.78
2022-10-29T13:54:34.622Z,7.18
2022-10-29T13:57:04.446Z,6.60
2022-10-29T13:59:48.521Z,6.57
2022-10-29T14:02:25.704Z,7.25
2022-10-29T14:04:58.551Z,6.80
2022-10-29T14:07:35.421Z,6.80
2022-10-29T14:10:08.299Z,6.90
2022-10-29T14:12:36.214Z,7.03
2022-10-29T14:15:09.914Z,6.85
2022-10-29T14:17:36.310Z,7.18
2022-10-29T14:20:03.435Z,7.65
2022-10-29T14:22:37.015Z,7.50
2022-10-29T14:25:27.241Z,5.97
2022-10-29T14:28:16.212Z,6.63
2022-10-29T14:30:43.359Z,6.55
2022-10-29T14:33:24.960Z,7.95
2022-10-29T14:35:55.942Z,6.88
2022-10-29T14:38:28.339Z,7.20
2022-10-29T14:40:54.747Z,6.35
2022-10-29T14:43:27.624Z,7.80
2022-10-29T14:45:56.991Z,7.15
2022-10-29T14:48:23.390Z,6.78
2022-10-29T14:50:51.295Z,6.73
2022-10-29T14:53:40.707Z,7.85
2022-10-29T14:56:11.103Z,6.97
2022-10-29T14:58:38.332Z,7.25
2022-10-29T15:01:12.126Z,6.90
2022-10-29T15:03:38.685Z,7.60
2022-10-29T15:06:16.193Z,7.25
2022-10-29T15:08:45.242Z,7.20
2022-10-29T15:11:40.439Z,7.22
2022-10-29T15:16:58.086Z,7.80
2022-10-29T15:19:24.785Z,6.97
2022-10-29T15:21:51.279Z,7.93
2022-10-29T15:24:21.464Z,7.57
2022-10-29T15:26:50.729Z,7.25
2022-10-29T15:29:30.616Z,7.13
2022-10-29T15:32:00.103Z,7.40
2022-10-29T15:34:32.277Z,6.47
2022-10-29T15:37:33.558Z,7.43
2022-10-29T15:40:06.849Z,6.60
2022-10-29T15:42:35.218Z,7.20
2022-10-29T15:45:07.511Z,7.70
2022-10-29T15:47:35.700Z,6.43
2022-10-29T15:50:02.497Z,7.13
2022-10-29T15:52:37.488Z,7.60
2022-10-29T15:55:14.959Z,7.83
2022-10-29T15:57:43.166Z,7.55
2022-10-29T16:00:11.506Z,6.70
2022-10-29T16:02:38.044Z,7.18
2022-10-29T16:05:04.852Z,6.80
2022-10-29T16:07:31.385Z,7.13
2022-10-29T16:09:59.347Z,7.43
2022-10-29T16:12:26.112Z,6.82
2022-10-29T16:14:52.517Z,6.20
2022-10-29T16:17:21.080Z,6.25
2022-10-29T16:19:47.654Z,6.27
2022-10-29T16:22:23.676Z,6.55
2022-10-29T16:24:50.078Z,7.57
2022-10-29T16:27:18.330Z,6.57
2022-10-29T16:29:46.918Z,6.20
2022-10-29T16:32:18.482Z,5.80
2022-10-29T16:34:44.854Z,6.38
2022-10-29T16:37:16.524Z,6.43
2022-10-29T16:39:43.100Z,6.40
2022-10-29T16:42:27.643Z,5.70
2022-10-29T16:44:53.957Z,5.43
2022-10-29T16:47:20.301Z,5.50
2022-10-29T16:49:46.615Z,6.53
2022-10-29T16:52:17.395Z,5.72
2022-10-29T16:54:47.396Z,5.47
2022-10-29T16:57:13.758Z,5.23
2022-10-29T16:59:40.145Z,6.68
2022-10-29T17:02:06.738Z,6.18
2022-10-29T17:04:33.138Z,5.65
2022-10-29T17:06:59.483Z,5.43
2022-10-29T17:09:25.914Z,7.10
2022-10-29T17:11:52.315Z,5.90
2022-10-29T17:14:18.630Z,6.28
2022-10-29T17:16:44.955Z,6.90
2022-10-29T17:19:11.531Z,6.55
2022-10-29T17:21:37.826Z,6.60
2022-10-29T17:24:07.713Z,7.10
2022-10-29T17:26:34.530Z,6.05
2022-10-29T17:29:00.867Z,7.00
2022-10-29T17:31:27.365Z,7.13
2022-10-29T17:33:53.705Z,7.37
2022-10-29T17:36:20.097Z,6.85
2022-10-29T17:38:46.666Z,6.57
2022-10-29T17:41:13.057Z,6.90
2022-10-29T17:43:39.459Z,7.07
2022-10-29T17:46:06.004Z,6.60
2022-10-29T17:48:32.499Z,7.90
2022-10-29T17:51:01.868Z,6.95
2022-10-29T17:53:29.862Z,7.15
2022-10-29T17:56:00.315Z,6.95
2022-10-29T17:58:27.298Z,7.27
2022-10-29T18:00:54.034Z,6.93
2022-10-29T18:03:24.316Z,7.85
2022-10-29T18:05:50.686Z,7.10
2022-10-29T18:08:17.220Z,7.45
2022-10-29T18:10:43.526Z,7.23
2022-10-29T18:13:09.851Z,6.97
2022-10-29T18:15:36.175Z,7.22
2022-10-29T18:18:02.524Z,7.13
2022-10-29T18:20:28.855Z,7.45
2022-10-29T18:22:56.254Z,7.73
2022-10-29T18:25:22.784Z,6.57
2022-10-29T18:27:52.187Z,7.38
2022-10-29T18:30:22.667Z,7.63
2022-10-29T18:32:49.286Z,8.10
2022-10-29T18:35:15.992Z,7.87
2022-10-29T18:37:42.350Z,9.52
2022-10-29T18:40:09.295Z,7.22
2022-10-29T18:42:35.627Z,7.88
2022-10-29T18:45:01.980Z,8.15
2022-10-29T18:47:28.362Z,8.30
2022-10-29T18:49:54.729Z,8.20
2022-10-29T18:52:21.052Z,7.60
2022-10-29T18:54:47.583Z,7.53
2022-10-29T18:57:16.849Z,7.68
2022-10-29T18:59:46.076Z,7.70
2022-10-29T19:02:12.518Z,7.75
2022-10-29T19:04:38.966Z,7.60
2022-10-29T19:07:05.364Z,8.60
2022-10-29T19:09:31.751Z,9.23
2022-10-29T19:11:59.648Z,7.50
2022-10-29T19:14:26.290Z,7.90
2022-10-29T19:16:52.638Z,7.57
2022-10-29T19:19:21.295Z,7.43
2022-10-29T19:21:50.504Z,6.97
2022-10-29T19:24:17.014Z,6.83
2022-10-29T19:26:44.026Z,7.35
2022-10-29T19:29:11.298Z,6.93
2022-10-29T19:31:37.689Z,7.88
2022-10-29T19:34:06.489Z,8.13
2022-10-29T19:36:34.339Z,7.60
2022-10-29T19:39:00.901Z,6.88
2022-10-29T19:41:27.639Z,7.45
2022-10-29T19:43:53.963Z,7.65
2022-10-29T19:46:24.538Z,6.93
2022-10-29T19:48:53.086Z,7.57
2022-10-29T19:51:20.353Z,7.85
2022-10-29T19:53:47.942Z,7.35
2022-10-29T19:56:15.930Z,7.60
2022-10-29T19:58:43.234Z,7.60
2022-10-29T20:01:16.071Z,7.80
2022-10-29T20:03:43.051Z,7.72
2022-10-29T20:06:09.665Z,7.90
2022-10-29T20:08:36.849Z,7.75
2022-10-29T20:11:03.625Z,7.70
2022-10-29T20:13:30.097Z,8.20
2022-10-29T20:15:56.829Z,8.00
2022-10-29T20:18:23.300Z,7.93
2022-10-29T20:20:56.634Z,7.60
2022-10-29T20:23:25.427Z,7.70
2022-10-29T20:25:51.821Z,7.70
2022-10-29T20:28:18.156Z,8.57
2022-10-29T20:30:44.533Z,8.52
2022-10-29T20:33:10.886Z,7.72
2022-10-29T20:35:37.260Z,7.75
2022-10-29T20:38:04.304Z,8.77
2022-10-29T20:40:30.675Z,8.05
2022-10-29T20:42:57.047Z,7.70
2022-10-29T20:45:23.416Z,7.00
2022-10-29T20:47:49.787Z,7.47
2022-10-29T20:50:16.286Z,8.70
2022-10-29T20:52:48.156Z,7.68
2022-10-29T20:55:15.115Z,7.90
2022-10-29T20:57:41.437Z,7.68
2022-10-29T21:00:08.427Z,8.10
2022-10-29T21:02:34.811Z,7.27
2022-10-29T21:05:01.252Z,7.60
2022-10-29T21:07:27.592Z,7.88
2022-10-29T21:09:54.010Z,7.93
2022-10-29T21:12:20.372Z,8.93
2022-10-29T21:14:46.762Z,8.07
2022-10-29T21:17:13.325Z,7.35
2022-10-29T21:19:39.857Z,7.55
2022-10-29T21:22:06.238Z,8.63
2022-10-29T21:24:32.579Z,7.85
2022-10-29T21:26:58.915Z,7.50
2022-10-29T21:29:25.294Z,7.97
2022-10-29T21:31:51.600Z,7.22
2022-10-29T21:34:17.938Z,7.70
2022-10-29T21:36:44.329Z,7.57
2022-10-29T21:39:10.730Z,7.57
2022-10-29T21:41:37.036Z,7.03
2022-10-29T21:44:03.608Z,7.28
2022-10-29T21:46:29.933Z,7.35
2022-10-29T21:48:56.618Z,7.05
2022-10-29T21:51:23.053Z,6.50
2022-10-29T21:53:49.386Z,7.18
2022-10-29T21:56:15.877Z,7.40
2022-10-29T21:58:42.951Z,7.60
2022-10-29T22:01:12.042Z,7.53
2022-10-29T22:03:41.273Z,7.30
2022-10-29T22:06:19.873Z,7.75
2022-10-29T22:08:47.223Z,8.63
2022-10-29T22:11:14.836Z,6.95
2022-10-29T22:13:41.309Z,7.35
2022-10-29T22:16:10.713Z,7.30
2022-10-29T22:18:37.679Z,7.20
2022-10-29T22:21:24.343Z,7.35
2022-10-29T22:23:57.969Z,7.63
2022-10-29T22:26:26.806Z,7.15
2022-10-29T22:28:53.406Z,6.50
2022-10-29T22:31:21.535Z,6.55
2022-10-29T22:33:48.279Z,7.38
2022-10-29T22:36:20.411Z,6.38
2022-10-29T22:38:46.837Z,6.78
2022-10-29T22:41:15.818Z,6.70
2022-10-29T22:43:43.142Z,6.57
2022-10-29T22:46:10.745Z,6.30
2022-10-29T22:48:37.144Z,7.22
2022-10-29T22:51:11.491Z,6.78
2022-10-29T22:53:37.916Z,7.13
2022-10-29T22:56:05.024Z,6.50
2022-10-29T22:58:31.451Z,6.63
2022-10-29T23:01:08.852Z,6.72
2022-10-29T23:03:35.643Z,6.30
2022-10-29T23:06:04.248Z,6.57
2022-10-29T23:08:31.275Z,5.55
2022-10-29T23:10:58.318Z,5.63
2022-10-29T23:13:24.702Z,6.82
2022-10-29T23:15:52.735Z,5.88
2022-10-29T23:18:19.276Z,6.10
2022-10-29T23:20:45.762Z,6.13
2022-10-29T23:23:13.120Z,6.88
2022-10-29T23:25:41.451Z,6.63
2022-10-29T23:28:08.793Z,7.57
2022-10-29T23:30:35.364Z,9.70
2022-10-29T23:33:01.807Z,7.90
2022-10-29T23:35:28.118Z,7.40
2022-10-29T23:37:54.766Z,7.43
2022-10-29T23:40:21.377Z,6.47
2022-10-29T23:42:47.707Z,6.57
2022-10-29T23:45:16.854Z,6.55
2022-10-29T23:47:43.251Z,6.05
2022-10-29T23:50:09.809Z,5.65
2022-10-29T23:52:36.179Z,6.30
2022-10-29T23:55:02.517Z,5.90
2022-10-29T23:57:28.915Z,5.50
2022-10-29T23:59:55.238Z,5.82
